sensor_id;sensor_type;location;lat;lon;timestamp;pressure;altitude;pressure_sealevel;temperature;humidity
9717;BME280;4897;43.570;27.832;2023-06-10T00:00:00;98475.44;;;17.21;100.00
9717;BME280;4897;43.570;27.832;2023-06-10T00:02:30;98473.69;;;17.14;100.00
9717;BME280;4897;43.570;27.832;2023-06-10T00:04:57;98460.00;;;17.01;100.00
9717;BME280;4897;43.570;27.832;2023-06-10T00:07:24;98464.56;;;17.00;100.00
9717;BME280;4897;43.570;27.832;2023-06-10T00:09:52;98483.56;;;17.07;100.00
9717;BME280;4897;43.570;27.832;2023-06-10T00:12:20;98478.06;;;17.00;100.00
9717;BME280;4897;43.570;27.832;2023-06-10T00:14:47;98474.34;;;17.01;100.00
9717;BME280;4897;43.570;27.832;2023-06-10T00:17:15;98471.19;;;16.98;100.00
9717;BME280;4897;43.570;27.832;2023-06-10T00:19:42;98478.44;;;16.97;100.00
9717;BME280;4897;43.570;27.832;2023-06-10T00:22:12;98459.53;;;16.83;100.00
9717;BME280;4897;43.570;27.832;2023-06-10T00:24:40;98478.25;;;16.84;100.00
9717;BME280;4897;43.570;27.832;2023-06-10T00:27:08;98476.00;;;16.88;100.00
9717;BME280;4897;43.570;27.832;2023-06-10T00:29:35;98478.44;;;16.83;100.00
9717;BME280;4897;43.570;27.832;2023-06-10T00:32:03;98483.84;;;16.68;100.00
9717;BME280;4897;43.570;27.832;2023-06-10T00:34:30;98479.38;;;16.60;100.00
9717;BME280;4897;43.570;27.832;2023-06-10T00:36:57;98452.59;;;16.36;100.00
9717;BME280;4897;43.570;27.832;2023-06-10T00:39:24;98408.91;;;16.04;100.00
9717;BME280;4897;43.570;27.832;2023-06-10T00:41:51;98482.06;;;16.38;100.00
9717;BME280;4897;43.570;27.832;2023-06-10T00:44:19;98443.41;;;16.08;100.00
9717;BME280;4897;43.570;27.832;2023-06-10T00:46:46;98405.88;;;15.84;100.00
9717;BME280;4897;43.570;27.832;2023-06-10T00:49:15;98484.97;;;16.36;100.00
9717;BME280;4897;43.570;27.832;2023-06-10T00:51:42;98481.31;;;16.29;100.00
9717;BME280;4897;43.570;27.832;2023-06-10T00:54:10;98484.38;;;16.26;100.00
9717;BME280;4897;43.570;27.832;2023-06-10T00:56:39;98473.47;;;16.20;100.00
9717;BME280;4897;43.570;27.832;2023-06-10T00:59:08;98456.25;;;16.06;100.00
9717;BME280;4897;43.570;27.832;2023-06-10T01:01:36;98487.69;;;16.14;100.00
9717;BME280;4897;43.570;27.832;2023-06-10T01:04:04;98481.09;;;16.16;100.00
9717;BME280;4897;43.570;27.832;2023-06-10T01:06:38;98459.28;;;16.03;100.00
9717;BME280;4897;43.570;27.832;2023-06-10T01:09:18;98479.59;;;16.14;100.00
9717;BME280;4897;43.570;27.832;2023-06-10T01:11:53;98407.38;;;15.64;100.00
9717;BME280;4897;43.570;27.832;2023-06-10T01:14:24;98459.44;;;15.87;100.00
9717;BME280;4897;43.570;27.832;2023-06-10T01:16:53;98479.09;;;15.95;100.00
9717;BME280;4897;43.570;27.832;2023-06-10T01:19:20;98491.41;;;15.90;100.00
9717;BME280;4897;43.570;27.832;2023-06-10T01:21:50;98466.56;;;15.80;100.00
9717;BME280;4897;43.570;27.832;2023-06-10T01:24:20;98463.31;;;15.84;100.00
9717;BME280;4897;43.570;27.832;2023-06-10T01:26:49;98450.63;;;15.70;100.00
9717;BME280;4897;43.570;27.832;2023-06-10T01:29:19;98464.50;;;15.82;100.00
9717;BME280;4897;43.570;27.832;2023-06-10T01:31:50;98467.88;;;15.84;100.00
9717;BME280;4897;43.570;27.832;2023-06-10T01:34:19;98467.63;;;15.71;100.00
9717;BME280;4897;43.570;27.832;2023-06-10T01:36:50;98470.31;;;15.71;100.00
9717;BME280;4897;43.570;27.832;2023-06-10T01:39:22;98438.34;;;15.45;100.00
9717;BME280;4897;43.570;27.832;2023-06-10T01:41:50;98464.31;;;15.61;100.00
9717;BME280;4897;43.570;27.832;2023-06-10T01:44:18;98473.56;;;15.66;100.00
9717;BME280;4897;43.570;27.832;2023-06-10T01:46:46;98470.56;;;15.61;100.00
9717;BME280;4897;43.570;27.832;2023-06-10T01:49:15;98473.78;;;15.57;100.00
9717;BME280;4897;43.570;27.832;2023-06-10T01:51:42;98471.66;;;15.44;100.00
9717;BME280;4897;43.570;27.832;2023-06-10T01:54:11;98469.16;;;15.43;100.00
9717;BME280;4897;43.570;27.832;2023-06-10T01:56:38;98385.63;;;14.81;100.00
9717;BME280;4897;43.570;27.832;2023-06-10T01:59:04;98465.44;;;15.44;100.00
9717;BME280;4897;43.570;27.832;2023-06-10T02:01:32;98477.06;;;15.44;100.00
9717;BME280;4897;43.570;27.832;2023-06-10T02:03:59;98469.38;;;15.33;100.00
9717;BME280;4897;43.570;27.832;2023-06-10T02:06:26;98474.56;;;15.43;100.00
9717;BME280;4897;43.570;27.832;2023-06-10T02:08:53;98469.47;;;15.40;100.00
9717;BME280;4897;43.570;27.832;2023-06-10T02:11:21;98460.72;;;15.38;100.00
9717;BME280;4897;43.570;27.832;2023-06-10T02:13:48;98394.22;;;14.85;100.00
9717;BME280;4897;43.570;27.832;2023-06-10T02:16:18;98224.16;;;13.81;100.00
9717;BME280;4897;43.570;27.832;2023-06-10T02:18:46;98453.25;;;15.17;100.00
9717;BME280;4897;43.570;27.832;2023-06-10T02:21:14;98475.19;;;15.14;100.00
9717;BME280;4897;43.570;27.832;2023-06-10T02:23:41;98476.69;;;15.08;100.00
9717;BME280;4897;43.570;27.832;2023-06-10T02:26:07;98474.66;;;15.10;100.00
9717;BME280;4897;43.570;27.832;2023-06-10T02:28:36;98455.91;;;14.94;100.00
9717;BME280;4897;43.570;27.832;2023-06-10T02:31:03;98464.13;;;15.01;100.00
9717;BME280;4897;43.570;27.832;2023-06-10T02:33:30;98470.59;;;15.14;100.00
9717;BME280;4897;43.570;27.832;2023-06-10T02:35:57;98463.56;;;15.13;100.00
9717;BME280;4897;43.570;27.832;2023-06-10T02:38:24;98459.72;;;15.08;100.00
9717;BME280;4897;43.570;27.832;2023-06-10T02:40:51;98486.75;;;15.23;100.00
9717;BME280;4897;43.570;27.832;2023-06-10T02:43:21;98488.94;;;15.19;100.00
9717;BME280;4897;43.570;27.832;2023-06-10T02:45:49;98400.16;;;14.72;100.00
9717;BME280;4897;43.570;27.832;2023-06-10T02:48:16;98411.22;;;14.77;100.00
9717;BME280;4897;43.570;27.832;2023-06-10T02:50:42;98491.81;;;15.17;100.00
9717;BME280;4897;43.570;27.832;2023-06-10T02:53:10;98426.84;;;14.82;100.00
9717;BME280;4897;43.570;27.832;2023-06-10T02:55:36;98464.09;;;15.09;100.00
9717;BME280;4897;43.570;27.832;2023-06-10T02:58:06;98486.47;;;15.40;100.00
9717;BME280;4897;43.570;27.832;2023-06-10T03:00:33;98444.91;;;15.12;100.00
9717;BME280;4897;43.570;27.832;2023-06-10T03:03:02;98494.44;;;15.34;100.00
9717;BME280;4897;43.570;27.832;2023-06-10T03:05:30;98465.06;;;15.16;100.00
9717;BME280;4897;43.570;27.832;2023-06-10T03:07:57;98471.59;;;15.21;100.00
9717;BME280;4897;43.570;27.832;2023-06-10T03:10:24;98485.69;;;15.32;100.00
9717;BME280;4897;43.570;27.832;2023-06-10T03:12:52;98478.22;;;15.42;100.00
9717;BME280;4897;43.570;27.832;2023-06-10T03:15:19;98456.34;;;15.45;100.00
9717;BME280;4897;43.570;27.832;2023-06-10T03:17:47;98467.03;;;15.61;100.00
9717;BME280;4897;43.570;27.832;2023-06-10T03:20:15;98461.16;;;15.57;100.00
9717;BME280;4897;43.570;27.832;2023-06-10T03:22:42;98473.56;;;15.66;100.00
9717;BME280;4897;43.570;27.832;2023-06-10T03:25:09;98474.69;;;15.72;100.00
9717;BME280;4897;43.570;27.832;2023-06-10T03:27:39;98466.56;;;15.80;100.00
9717;BME280;4897;43.570;27.832;2023-06-10T03:30:07;98468.13;;;15.97;100.00
9717;BME280;4897;43.570;27.832;2023-06-10T03:32:34;98465.47;;;16.12;100.00
9717;BME280;4897;43.570;27.832;2023-06-10T03:35:02;98465.84;;;16.23;100.00
9717;BME280;4897;43.570;27.832;2023-06-10T03:37:30;98446.97;;;16.23;100.00
9717;BME280;4897;43.570;27.832;2023-06-10T03:39:57;98441.88;;;16.28;100.00
9717;BME280;4897;43.570;27.832;2023-06-10T03:42:24;98447.84;;;16.38;100.00
9717;BME280;4897;43.570;27.832;2023-06-10T03:44:51;98452.00;;;16.63;100.00
9717;BME280;4897;43.570;27.832;2023-06-10T03:47:18;98401.88;;;16.46;100.00
9717;BME280;4897;43.570;27.832;2023-06-10T03:49:45;98385.13;;;16.36;100.00
9717;BME280;4897;43.570;27.832;2023-06-10T03:52:12;98386.72;;;16.45;100.00
9717;BME280;4897;43.570;27.832;2023-06-10T03:54:40;98444.19;;;16.83;100.00
9717;BME280;4897;43.570;27.832;2023-06-10T03:57:07;98457.50;;;16.99;100.00
9717;BME280;4897;43.570;27.832;2023-06-10T03:59:34;98454.22;;;17.18;100.00
9717;BME280;4897;43.570;27.832;2023-06-10T04:02:01;98426.56;;;17.02;100.00
9717;BME280;4897;43.570;27.832;2023-06-10T04:04:30;98462.81;;;17.43;100.00
9717;BME280;4897;43.570;27.832;2023-06-10T04:06:57;98452.84;;;17.43;100.00
9717;BME280;4897;43.570;27.832;2023-06-10T04:09:24;98465.06;;;17.54;100.00
9717;BME280;4897;43.570;27.832;2023-06-10T04:11:52;98463.25;;;17.61;100.00
9717;BME280;4897;43.570;27.832;2023-06-10T04:14:19;98466.88;;;17.68;100.00
9717;BME280;4897;43.570;27.832;2023-06-10T04:16:46;98436.25;;;17.46;100.00
9717;BME280;4897;43.570;27.832;2023-06-10T04:19:13;98467.91;;;17.88;100.00
9717;BME280;4897;43.570;27.832;2023-06-10T04:21:40;98460.72;;;18.16;100.00
9717;BME280;4897;43.570;27.832;2023-06-10T04:24:07;98457.41;;;18.21;100.00
9717;BME280;4897;43.570;27.832;2023-06-10T04:26:35;98472.47;;;18.51;100.00
9717;BME280;4897;43.570;27.832;2023-06-10T04:29:03;98389.25;;;17.83;100.00
9717;BME280;4897;43.570;27.832;2023-06-10T04:31:30;98427.94;;;18.32;100.00
9717;BME280;4897;43.570;27.832;2023-06-10T04:33:57;98458.59;;;18.61;100.00
9717;BME280;4897;43.570;27.832;2023-06-10T04:36:26;98473.25;;;18.73;100.00
9717;BME280;4897;43.570;27.832;2023-06-10T04:38:54;98478.41;;;18.68;100.00
9717;BME280;4897;43.570;27.832;2023-06-10T04:41:21;98462.59;;;18.65;100.00
9717;BME280;4897;43.570;27.832;2023-06-10T04:43:48;98462.72;;;18.57;100.00
9717;BME280;4897;43.570;27.832;2023-06-10T04:46:17;98466.75;;;18.67;100.00
9717;BME280;4897;43.570;27.832;2023-06-10T04:48:44;98477.88;;;18.79;100.00
9717;BME280;4897;43.570;27.832;2023-06-10T04:51:12;98466.28;;;18.91;100.00
9717;BME280;4897;43.570;27.832;2023-06-10T04:53:39;98474.69;;;19.03;100.00
9717;BME280;4897;43.570;27.832;2023-06-10T04:56:07;98465.91;;;19.01;100.00
9717;BME280;4897;43.570;27.832;2023-06-10T04:58:34;98454.66;;;18.97;100.00
9717;BME280;4897;43.570;27.832;2023-06-10T05:01:02;98459.75;;;19.20;100.00
9717;BME280;4897;43.570;27.832;2023-06-10T05:03:31;98470.91;;;19.38;100.00
9717;BME280;4897;43.570;27.832;2023-06-10T05:05:58;98473.44;;;19.46;100.00
9717;BME280;4897;43.570;27.832;2023-06-10T05:08:25;98473.31;;;19.61;100.00
9717;BME280;4897;43.570;27.832;2023-06-10T05:10:52;98470.00;;;19.78;100.00
9717;BME280;4897;43.570;27.832;2023-06-10T05:13:18;98468.81;;;20.07;100.00
9717;BME280;4897;43.570;27.832;2023-06-10T05:15:45;98467.13;;;20.91;100.00
9717;BME280;4897;43.570;27.832;2023-06-10T05:18:13;98468.88;;;21.49;100.00
9717;BME280;4897;43.570;27.832;2023-06-10T05:20:42;98464.06;;;22.20;100.00
9717;BME280;4897;43.570;27.832;2023-06-10T05:23:09;98457.78;;;22.76;100.00
9717;BME280;4897;43.570;27.832;2023-06-10T05:25:36;98446.16;;;23.05;100.00
9717;BME280;4897;43.570;27.832;2023-06-10T05:28:03;98418.63;;;23.25;100.00
9717;BME280;4897;43.570;27.832;2023-06-10T05:30:30;98443.78;;;23.63;100.00
9717;BME280;4897;43.570;27.832;2023-06-10T05:32:58;98444.78;;;24.10;100.00
9717;BME280;4897;43.570;27.832;2023-06-10T05:35:25;98415.28;;;24.41;100.00
9717;BME280;4897;43.570;27.832;2023-06-10T05:37:53;98423.75;;;24.98;100.00
9717;BME280;4897;43.570;27.832;2023-06-10T05:40:20;98410.78;;;24.93;100.00
9717;BME280;4897;43.570;27.832;2023-06-10T05:42:47;98428.06;;;25.45;100.00
9717;BME280;4897;43.570;27.832;2023-06-10T05:45:15;98442.09;;;26.17;100.00
9717;BME280;4897;43.570;27.832;2023-06-10T05:47:42;98439.78;;;26.58;100.00
9717;BME280;4897;43.570;27.832;2023-06-10T05:50:09;98441.09;;;26.89;100.00
9717;BME280;4897;43.570;27.832;2023-06-10T05:52:36;98441.97;;;26.73;100.00
9717;BME280;4897;43.570;27.832;2023-06-10T05:55:08;98433.41;;;27.24;100.00
9717;BME280;4897;43.570;27.832;2023-06-10T05:57:35;98435.41;;;27.12;88.90
9717;BME280;4897;43.570;27.832;2023-06-10T06:00:02;98427.75;;;27.14;85.07
9717;BME280;4897;43.570;27.832;2023-06-10T06:02:29;98425.97;;;27.03;86.99
9717;BME280;4897;43.570;27.832;2023-06-10T06:04:56;98415.59;;;26.88;85.88
9717;BME280;4897;43.570;27.832;2023-06-10T06:07:23;98433.06;;;26.66;87.82
9717;BME280;4897;43.570;27.832;2023-06-10T06:09:50;98426.69;;;27.15;86.87
9717;BME280;4897;43.570;27.832;2023-06-10T06:12:19;98426.22;;;27.23;86.85
9717;BME280;4897;43.570;27.832;2023-06-10T06:14:46;98427.09;;;27.67;83.39
9717;BME280;4897;43.570;27.832;2023-06-10T06:17:18;98385.16;;;27.77;77.73
9717;BME280;4897;43.570;27.832;2023-06-10T06:19:44;98406.59;;;28.33;74.79
9717;BME280;4897;43.570;27.832;2023-06-10T06:22:13;98400.38;;;28.74;70.50
9717;BME280;4897;43.570;27.832;2023-06-10T06:24:40;98404.94;;;29.47;64.93
9717;BME280;4897;43.570;27.832;2023-06-10T06:27:07;98409.19;;;29.80;63.30
9717;BME280;4897;43.570;27.832;2023-06-10T06:29:35;98407.38;;;30.36;59.01
9717;BME280;4897;43.570;27.832;2023-06-10T06:32:02;98412.91;;;30.91;54.05
9717;BME280;4897;43.570;27.832;2023-06-10T06:34:29;98394.63;;;31.05;52.27
9717;BME280;4897;43.570;27.832;2023-06-10T06:36:57;98402.69;;;30.66;49.71
9717;BME280;4897;43.570;27.832;2023-06-10T06:39:24;98413.97;;;29.33;56.12
9717;BME280;4897;43.570;27.832;2023-06-10T06:41:51;98405.91;;;28.47;65.52
9717;BME280;4897;43.570;27.832;2023-06-10T06:44:18;98340.00;;;27.41;70.27
9717;BME280;4897;43.570;27.832;2023-06-10T06:46:46;98388.34;;;27.20;69.68
9717;BME280;4897;43.570;27.832;2023-06-10T06:49:14;98404.34;;;27.28;68.88
9717;BME280;4897;43.570;27.832;2023-06-10T06:51:41;98409.75;;;27.23;67.72
9717;BME280;4897;43.570;27.832;2023-06-10T06:54:08;98412.31;;;27.08;68.65
9717;BME280;4897;43.570;27.832;2023-06-10T06:56:34;98382.88;;;26.16;71.34
9717;BME280;4897;43.570;27.832;2023-06-10T06:59:01;98397.59;;;26.43;77.62
9717;BME280;4897;43.570;27.832;2023-06-10T07:01:29;98397.34;;;26.77;72.03
9717;BME280;4897;43.570;27.832;2023-06-10T07:03:58;98396.81;;;26.97;73.37
9717;BME280;4897;43.570;27.832;2023-06-10T07:06:25;98400.16;;;27.04;70.20
9717;BME280;4897;43.570;27.832;2023-06-10T07:08:52;98406.53;;;26.88;65.91
9717;BME280;4897;43.570;27.832;2023-06-10T07:11:19;98384.19;;;26.79;66.73
9717;BME280;4897;43.570;27.832;2023-06-10T07:13:47;98335.69;;;26.47;69.09
9717;BME280;4897;43.570;27.832;2023-06-10T07:16:14;98405.47;;;26.72;64.18
9717;BME280;4897;43.570;27.832;2023-06-10T07:18:41;98389.25;;;26.71;63.25
9717;BME280;4897;43.570;27.832;2023-06-10T07:21:09;98385.38;;;27.05;64.24
9717;BME280;4897;43.570;27.832;2023-06-10T07:23:37;98386.97;;;27.23;62.67
9717;BME280;4897;43.570;27.832;2023-06-10T07:26:07;98383.78;;;27.09;61.17
9717;BME280;4897;43.570;27.832;2023-06-10T07:28:36;98393.94;;;27.30;59.23
9717;BME280;4897;43.570;27.832;2023-06-10T07:31:03;98382.84;;;27.63;59.54
9717;BME280;4897;43.570;27.832;2023-06-10T07:33:30;98369.66;;;28.19;56.29
9717;BME280;4897;43.570;27.832;2023-06-10T07:35:57;98405.91;;;28.79;52.66
9717;BME280;4897;43.570;27.832;2023-06-10T07:38:26;98390.41;;;29.72;49.64
9717;BME280;4897;43.570;27.832;2023-06-10T07:40:53;98385.34;;;31.55;44.66
9717;BME280;4897;43.570;27.832;2023-06-10T07:43:20;98373.69;;;33.08;39.95
9717;BME280;4897;43.570;27.832;2023-06-10T07:45:47;98366.31;;;33.22;39.21
9717;BME280;4897;43.570;27.832;2023-06-10T07:48:14;98382.50;;;33.34;38.48
9717;BME280;4897;43.570;27.832;2023-06-10T07:50:41;98388.03;;;32.58;38.70
9717;BME280;4897;43.570;27.832;2023-06-10T07:53:08;98340.66;;;31.33;40.92
9717;BME280;4897;43.570;27.832;2023-06-10T07:55:37;98377.28;;;30.59;42.55
9717;BME280;4897;43.570;27.832;2023-06-10T07:58:03;98354.06;;;29.80;44.37
9717;BME280;4897;43.570;27.832;2023-06-10T08:00:30;98402.97;;;30.30;43.12
9717;BME280;4897;43.570;27.832;2023-06-10T08:03:00;98398.84;;;30.37;42.14
9717;BME280;4897;43.570;27.832;2023-06-10T08:05:27;98386.41;;;30.35;42.33
9717;BME280;4897;43.570;27.832;2023-06-10T08:07:55;98398.00;;;30.57;42.58
9717;BME280;4897;43.570;27.832;2023-06-10T08:10:22;98403.22;;;30.18;43.60
9717;BME280;4897;43.570;27.832;2023-06-10T08:12:51;98370.69;;;30.30;42.56
9717;BME280;4897;43.570;27.832;2023-06-10T08:15:18;98380.53;;;29.76;43.15
9717;BME280;4897;43.570;27.832;2023-06-10T08:17:45;98405.81;;;29.63;42.67
9717;BME280;4897;43.570;27.832;2023-06-10T08:20:12;98388.41;;;29.47;44.91
9717;BME280;4897;43.570;27.832;2023-06-10T08:22:39;98380.34;;;29.36;46.34
9717;BME280;4897;43.570;27.832;2023-06-10T08:25:06;98391.91;;;28.86;48.04
9717;BME280;4897;43.570;27.832;2023-06-10T08:27:34;98388.53;;;28.74;48.30
9717;BME280;4897;43.570;27.832;2023-06-10T08:30:03;98377.25;;;29.79;46.50
9717;BME280;4897;43.570;27.832;2023-06-10T08:32:30;98392.03;;;31.39;41.62
9717;BME280;4897;43.570;27.832;2023-06-10T08:34:57;98364.09;;;31.99;39.07
9717;BME280;4897;43.570;27.832;2023-06-10T08:37:24;98386.63;;;32.21;39.98
9717;BME280;4897;43.570;27.832;2023-06-10T08:39:51;98357.44;;;30.42;41.59
9717;BME280;4897;43.570;27.832;2023-06-10T08:42:22;98397.78;;;29.56;43.46
9717;BME280;4897;43.570;27.832;2023-06-10T08:44:53;98386.22;;;29.02;45.79
9717;BME280;4897;43.570;27.832;2023-06-10T08:47:23;98382.75;;;28.75;47.54
9717;BME280;4897;43.570;27.832;2023-06-10T08:49:50;98378.28;;;29.68;47.51
9717;BME280;4897;43.570;27.832;2023-06-10T08:52:19;98382.06;;;31.38;43.32
9717;BME280;4897;43.570;27.832;2023-06-10T08:54:49;98378.00;;;32.90;40.68
9717;BME280;4897;43.570;27.832;2023-06-10T08:57:18;98347.13;;;33.26;38.95
9717;BME280;4897;43.570;27.832;2023-06-10T08:59:46;98358.94;;;34.16;38.18
9717;BME280;4897;43.570;27.832;2023-06-10T09:02:14;98368.03;;;34.86;37.53
9717;BME280;4897;43.570;27.832;2023-06-10T09:04:47;98341.50;;;36.77;34.63
9717;BME280;4897;43.570;27.832;2023-06-10T09:07:15;98304.00;;;37.96;32.92
9717;BME280;4897;43.570;27.832;2023-06-10T09:09:43;98359.00;;;37.95;33.17
9717;BME280;4897;43.570;27.832;2023-06-10T09:12:10;98362.13;;;37.94;32.17
9717;BME280;4897;43.570;27.832;2023-06-10T09:14:38;98356.91;;;36.52;34.16
9717;BME280;4897;43.570;27.832;2023-06-10T09:17:06;98255.75;;;33.95;36.59
9717;BME280;4897;43.570;27.832;2023-06-10T09:19:36;98371.22;;;33.72;37.60
9717;BME280;4897;43.570;27.832;2023-06-10T09:22:06;98362.44;;;32.94;39.16
9717;BME280;4897;43.570;27.832;2023-06-10T09:24:33;98341.19;;;32.27;40.54
9717;BME280;4897;43.570;27.832;2023-06-10T09:27:04;98359.69;;;31.98;41.05
9717;BME280;4897;43.570;27.832;2023-06-10T09:29:32;98375.66;;;30.53;44.94
9717;BME280;4897;43.570;27.832;2023-06-10T09:32:12;98354.06;;;29.80;46.53
9717;BME280;4897;43.570;27.832;2023-06-10T09:34:39;98298.91;;;29.60;46.03
9717;BME280;4897;43.570;27.832;2023-06-10T09:37:08;98367.34;;;30.23;46.76
9717;BME280;4897;43.570;27.832;2023-06-10T09:39:37;98308.34;;;30.39;45.01
9717;BME280;4897;43.570;27.832;2023-06-10T09:42:15;98334.03;;;32.26;41.65
9717;BME280;4897;43.570;27.832;2023-06-10T09:44:49;98353.53;;;34.24;39.16
9717;BME280;4897;43.570;27.832;2023-06-10T09:47:20;98343.69;;;34.50;37.19
9717;BME280;4897;43.570;27.832;2023-06-10T09:49:47;98344.28;;;35.75;35.66
9717;BME280;4897;43.570;27.832;2023-06-10T09:52:21;98340.78;;;36.94;33.88
9717;BME280;4897;43.570;27.832;2023-06-10T09:54:48;98277.97;;;37.35;32.98
9717;BME280;4897;43.570;27.832;2023-06-10T09:57:16;98347.34;;;38.10;32.68
9717;BME280;4897;43.570;27.832;2023-06-10T09:59:44;98332.53;;;38.70;31.89
9717;BME280;4897;43.570;27.832;2023-06-10T10:02:14;98335.97;;;38.67;32.02
9717;BME280;4897;43.570;27.832;2023-06-10T10:04:41;98265.38;;;38.41;31.53
9717;BME280;4897;43.570;27.832;2023-06-10T10:07:09;98314.72;;;36.01;33.59
9717;BME280;4897;43.570;27.832;2023-06-10T10:09:37;98332.03;;;33.79;36.70
9717;BME280;4897;43.570;27.832;2023-06-10T10:12:09;98353.59;;;33.63;36.94
9717;BME280;4897;43.570;27.832;2023-06-10T10:14:37;98341.38;;;32.07;38.93
9717;BME280;4897;43.570;27.832;2023-06-10T10:17:10;98340.06;;;31.95;39.68
9717;BME280;4897;43.570;27.832;2023-06-10T10:19:42;98315.09;;;32.05;39.55
9717;BME280;4897;43.570;27.832;2023-06-10T10:22:17;98338.06;;;32.68;39.04
9717;BME280;4897;43.570;27.832;2023-06-10T10:24:50;98241.44;;;32.14;38.65
9717;BME280;4897;43.570;27.832;2023-06-10T10:27:27;98303.09;;;33.24;37.61
9717;BME280;4897;43.570;27.832;2023-06-10T10:29:55;98319.03;;;34.76;35.97
9717;BME280;4897;43.570;27.832;2023-06-10T10:32:28;98324.06;;;35.83;33.87
9717;BME280;4897;43.570;27.832;2023-06-10T10:35:02;98316.22;;;35.85;33.28
9717;BME280;4897;43.570;27.832;2023-06-10T10:37:31;98299.44;;;36.12;32.74
9717;BME280;4897;43.570;27.832;2023-06-10T10:40:04;98294.28;;;35.83;33.19
9717;BME280;4897;43.570;27.832;2023-06-10T10:42:32;98311.03;;;36.28;32.66
9717;BME280;4897;43.570;27.832;2023-06-10T10:44:59;98312.13;;;37.02;32.35
9717;BME280;4897;43.570;27.832;2023-06-10T10:47:27;98286.00;;;36.58;32.63
9717;BME280;4897;43.570;27.832;2023-06-10T10:49:55;98332.22;;;36.37;33.81
9717;BME280;4897;43.570;27.832;2023-06-10T10:52:28;98250.38;;;33.85;35.94
9717;BME280;4897;43.570;27.832;2023-06-10T10:55:14;98330.34;;;33.97;37.57
9717;BME280;4897;43.570;27.832;2023-06-10T10:57:41;98322.44;;;34.87;34.91
9717;BME280;4897;43.570;27.832;2023-06-10T11:00:10;98282.81;;;34.54;34.57
9717;BME280;4897;43.570;27.832;2023-06-10T11:02:40;98302.22;;;33.47;36.35
9717;BME280;4897;43.570;27.832;2023-06-10T11:05:10;98306.31;;;32.84;37.43
9717;BME280;4897;43.570;27.832;2023-06-10T11:07:37;98309.34;;;33.11;38.10
9717;BME280;4897;43.570;27.832;2023-06-10T11:10:07;98314.53;;;32.94;38.21
9717;BME280;4897;43.570;27.832;2023-06-10T11:12:56;98307.75;;;34.08;36.86
9717;BME280;4897;43.570;27.832;2023-06-10T11:15:24;98309.88;;;35.71;34.45
9717;BME280;4897;43.570;27.832;2023-06-10T11:18:11;98281.75;;;37.48;32.85
9717;BME280;4897;43.570;27.832;2023-06-10T11:20:45;98294.31;;;38.27;31.90
9717;BME280;4897;43.570;27.832;2023-06-10T11:23:33;98292.28;;;37.51;31.80
9717;BME280;4897;43.570;27.832;2023-06-10T11:26:30;98295.00;;;36.33;33.95
9717;BME280;4897;43.570;27.832;2023-06-10T11:29:06;98283.16;;;34.80;34.72
9717;BME280;4897;43.570;27.832;2023-06-10T11:31:40;98293.34;;;33.88;36.19
9717;BME280;4897;43.570;27.832;2023-06-10T11:34:08;98294.31;;;33.59;37.80
9717;BME280;4897;43.570;27.832;2023-06-10T11:36:37;98278.69;;;32.26;39.33
9717;BME280;4897;43.570;27.832;2023-06-10T11:39:08;98288.13;;;31.43;41.73
9717;BME280;4897;43.570;27.832;2023-06-10T11:41:37;98282.22;;;31.06;42.86
9717;BME280;4897;43.570;27.832;2023-06-10T11:44:08;98282.84;;;30.77;43.48
9717;BME280;4897;43.570;27.832;2023-06-10T11:46:36;98287.28;;;30.78;44.90
9717;BME280;4897;43.570;27.832;2023-06-10T11:49:03;98262.47;;;30.68;44.56
9717;BME280;4897;43.570;27.832;2023-06-10T11:51:33;98266.31;;;30.67;45.73
9717;BME280;4897;43.570;27.832;2023-06-10T11:54:00;98275.66;;;31.89;43.53
9717;BME280;4897;43.570;27.832;2023-06-10T11:56:28;98256.28;;;33.23;40.75
9717;BME280;4897;43.570;27.832;2023-06-10T11:58:57;98253.56;;;35.52;37.24
9717;BME280;4897;43.570;27.832;2023-06-10T12:01:26;98260.34;;;36.17;35.24
9717;BME280;4897;43.570;27.832;2023-06-10T12:03:58;98248.66;;;37.07;34.12
9717;BME280;4897;43.570;27.832;2023-06-10T12:06:29;98256.69;;;37.91;32.55
9717;BME280;4897;43.570;27.832;2023-06-10T12:09:04;98243.22;;;38.01;31.91
9717;BME280;4897;43.570;27.832;2023-06-10T12:11:31;98248.53;;;37.12;30.93
9717;BME280;4897;43.570;27.832;2023-06-10T12:13:58;98242.34;;;36.45;31.75
9717;BME280;4897;43.570;27.832;2023-06-10T12:16:26;98245.41;;;36.13;32.44
9717;BME280;4897;43.570;27.832;2023-06-10T12:19:04;98248.13;;;36.57;31.26
9717;BME280;4897;43.570;27.832;2023-06-10T12:21:32;98237.25;;;35.23;32.41
9717;BME280;4897;43.570;27.832;2023-06-10T12:24:07;98242.19;;;33.94;32.35
9717;BME280;4897;43.570;27.832;2023-06-10T12:26:39;98229.69;;;33.77;31.53
9717;BME280;4897;43.570;27.832;2023-06-10T12:29:27;98230.03;;;33.57;32.32
9717;BME280;4897;43.570;27.832;2023-06-10T12:32:00;98225.72;;;33.46;31.90
9717;BME280;4897;43.570;27.832;2023-06-10T12:34:33;98222.75;;;33.24;31.78
9717;BME280;4897;43.570;27.832;2023-06-10T12:37:01;98224.63;;;33.66;31.49
9717;BME280;4897;43.570;27.832;2023-06-10T12:39:30;98221.41;;;34.10;31.07
9717;BME280;4897;43.570;27.832;2023-06-10T12:41:57;98219.13;;;35.25;29.76
9717;BME280;4897;43.570;27.832;2023-06-10T12:44:32;98214.50;;;36.45;28.49
9717;BME280;4897;43.570;27.832;2023-06-10T12:47:09;98195.09;;;38.04;27.70
9717;BME280;4897;43.570;27.832;2023-06-10T12:49:38;98186.06;;;38.54;27.16
9717;BME280;4897;43.570;27.832;2023-06-10T12:52:05;98178.63;;;38.28;26.83
9717;BME280;4897;43.570;27.832;2023-06-10T12:54:34;98203.59;;;38.16;26.78
9717;BME280;4897;43.570;27.832;2023-06-10T12:57:04;98211.72;;;38.56;26.30
9717;BME280;4897;43.570;27.832;2023-06-10T12:59:31;98183.97;;;39.79;25.24
9717;BME280;4897;43.570;27.832;2023-06-10T13:01:58;98203.16;;;38.61;26.24
9717;BME280;4897;43.570;27.832;2023-06-10T13:04:27;98193.72;;;38.82;26.44
9717;BME280;4897;43.570;27.832;2023-06-10T13:06:53;98199.63;;;39.80;25.78
9717;BME280;4897;43.570;27.832;2023-06-10T13:09:21;98202.56;;;40.17;24.88
9717;BME280;4897;43.570;27.832;2023-06-10T13:11:48;98181.78;;;38.94;25.83